sensor_id;sensor_type;location;lat;lon;timestamp;P1;durP1;ratioP1;P2;durP2;ratioP2
2650;SDS011;1335;48.180;16.342;2023-07-13T00:00:29;1.40;;;1.30;;
2650;SDS011;1335;48.180;16.342;2023-07-13T00:02:57;1.50;;;1.40;;
2650;SDS011;1335;48.180;16.342;2023-07-13T00:05:24;1.80;;;1.43;;
2650;SDS011;1335;48.180;16.342;2023-07-13T00:07:52;1.40;;;1.30;;
2650;SDS011;1335;48.180;16.342;2023-07-13T00:10:20;1.47;;;1.37;;
2650;SDS011;1335;48.180;16.342;2023-07-13T00:12:49;1.40;;;1.20;;
2650;SDS011;1335;48.180;16.342;2023-07-13T00:15:21;1.97;;;1.20;;
2650;SDS011;1335;48.180;16.342;2023-07-13T00:17:49;1.57;;;1.47;;
2650;SDS011;1335;48.180;16.342;2023-07-13T00:20:16;1.33;;;1.00;;
2650;SDS011;1335;48.180;16.342;2023-07-13T00:22:43;1.90;;;1.50;;
2650;SDS011;1335;48.180;16.342;2023-07-13T00:25:11;1.50;;;1.40;;
2650;SDS011;1335;48.180;16.342;2023-07-13T00:27:38;2.03;;;1.93;;
2650;SDS011;1335;48.180;16.342;2023-07-13T00:30:07;2.80;;;2.37;;
2650;SDS011;1335;48.180;16.342;2023-07-13T00:32:35;1.80;;;1.17;;
2650;SDS011;1335;48.180;16.342;2023-07-13T00:35:02;1.37;;;1.27;;
2650;SDS011;1335;48.180;16.342;2023-07-13T00:37:30;1.87;;;1.70;;
2650;SDS011;1335;48.180;16.342;2023-07-13T00:39:57;1.47;;;1.40;;
2650;SDS011;1335;48.180;16.342;2023-07-13T00:42:24;2.13;;;1.60;;
2650;SDS011;1335;48.180;16.342;2023-07-13T00:45:02;3.80;;;3.43;;
2650;SDS011;1335;48.180;16.342;2023-07-13T00:47:31;2.10;;;1.60;;
2650;SDS011;1335;48.180;16.342;2023-07-13T00:49:58;2.00;;;1.90;;
2650;SDS011;1335;48.180;16.342;2023-07-13T00:52:26;3.47;;;1.93;;
2650;SDS011;1335;48.180;16.342;2023-07-13T00:54:54;2.50;;;1.47;;
2650;SDS011;1335;48.180;16.342;2023-07-13T00:57:21;1.40;;;1.20;;
2650;SDS011;1335;48.180;16.342;2023-07-13T00:59:50;7.20;;;2.40;;
2650;SDS011;1335;48.180;16.342;2023-07-13T01:02:18;1.23;;;1.13;;
2650;SDS011;1335;48.180;16.342;2023-07-13T01:04:48;1.20;;;1.10;;
2650;SDS011;1335;48.180;16.342;2023-07-13T01:07:15;1.20;;;1.10;;
2650;SDS011;1335;48.180;16.342;2023-07-13T01:09:42;1.63;;;1.50;;
2650;SDS011;1335;48.180;16.342;2023-07-13T01:12:10;1.43;;;1.27;;
2650;SDS011;1335;48.180;16.342;2023-07-13T01:14:38;2.50;;;0.93;;
2650;SDS011;1335;48.180;16.342;2023-07-13T01:17:07;1.87;;;1.40;;
2650;SDS011;1335;48.180;16.342;2023-07-13T01:19:36;1.20;;;1.20;;
2650;SDS011;1335;48.180;16.342;2023-07-13T01:22:06;1.50;;;1.40;;
2650;SDS011;1335;48.180;16.342;2023-07-13T01:24:34;4.00;;;1.20;;
2650;SDS011;1335;48.180;16.342;2023-07-13T01:27:01;2.43;;;1.40;;
2650;SDS011;1335;48.180;16.342;2023-07-13T01:29:29;1.67;;;1.33;;
2650;SDS011;1335;48.180;16.342;2023-07-13T01:31:56;4.10;;;1.57;;
2650;SDS011;1335;48.180;16.342;2023-07-13T01:34:25;1.90;;;1.30;;
2650;SDS011;1335;48.180;16.342;2023-07-13T01:36:52;1.67;;;1.57;;
2650;SDS011;1335;48.180;16.342;2023-07-13T01:39:22;4.57;;;1.07;;
2650;SDS011;1335;48.180;16.342;2023-07-13T01:41:49;2.50;;;1.00;;
2650;SDS011;1335;48.180;16.342;2023-07-13T01:44:17;1.77;;;1.67;;
2650;SDS011;1335;48.180;16.342;2023-07-13T01:46:44;1.33;;;1.10;;
2650;SDS011;1335;48.180;16.342;2023-07-13T01:49:11;3.27;;;1.17;;
2650;SDS011;1335;48.180;16.342;2023-07-13T01:51:38;1.47;;;1.10;;
2650;SDS011;1335;48.180;16.342;2023-07-13T01:54:05;1.30;;;1.20;;
2650;SDS011;1335;48.180;16.342;2023-07-13T01:56:34;1.90;;;1.13;;
2650;SDS011;1335;48.180;16.342;2023-07-13T01:59:01;0.90;;;0.90;;
2650;SDS011;1335;48.180;16.342;2023-07-13T02:01:29;2.43;;;1.40;;
2650;SDS011;1335;48.180;16.342;2023-07-13T02:03:56;3.50;;;1.30;;
2650;SDS011;1335;48.180;16.342;2023-07-13T02:06:23;1.67;;;1.57;;
2650;SDS011;1335;48.180;16.342;2023-07-13T02:08:50;1.23;;;1.07;;
2650;SDS011;1335;48.180;16.342;2023-07-13T02:11:17;1.20;;;1.10;;
2650;SDS011;1335;48.180;16.342;2023-07-13T02:13:46;1.73;;;1.17;;
2650;SDS011;1335;48.180;16.342;2023-07-13T02:16:13;1.43;;;1.30;;
2650;SDS011;1335;48.180;16.342;2023-07-13T02:18:41;1.30;;;1.20;;
2650;SDS011;1335;48.180;16.342;2023-07-13T02:21:08;1.53;;;1.20;;
2650;SDS011;1335;48.180;16.342;2023-07-13T02:23:35;1.70;;;1.60;;
2650;SDS011;1335;48.180;16.342;2023-07-13T02:26:03;1.30;;;1.20;;
2650;SDS011;1335;48.180;16.342;2023-07-13T02:28:30;1.40;;;1.30;;
2650;SDS011;1335;48.180;16.342;2023-07-13T02:31:05;1.80;;;1.50;;
2650;SDS011;1335;48.180;16.342;2023-07-13T02:33:32;2.10;;;1.87;;
2650;SDS011;1335;48.180;16.342;2023-07-13T02:35:59;1.10;;;1.10;;
2650;SDS011;1335;48.180;16.342;2023-07-13T02:38:26;2.60;;;1.83;;
2650;SDS011;1335;48.180;16.342;2023-07-13T02:40:54;1.00;;;1.00;;
2650;SDS011;1335;48.180;16.342;2023-07-13T02:43:21;2.60;;;1.60;;
2650;SDS011;1335;48.180;16.342;2023-07-13T02:45:48;2.37;;;1.80;;
2650;SDS011;1335;48.180;16.342;2023-07-13T02:48:17;2.57;;;1.60;;
2650;SDS011;1335;48.180;16.342;2023-07-13T02:50:44;1.70;;;1.60;;
2650;SDS011;1335;48.180;16.342;2023-07-13T02:53:12;2.70;;;1.73;;
2650;SDS011;1335;48.180;16.342;2023-07-13T02:55:39;1.63;;;0.90;;
2650;SDS011;1335;48.180;16.342;2023-07-13T02:58:12;1.47;;;1.33;;
2650;SDS011;1335;48.180;16.342;2023-07-13T03:00:41;1.47;;;1.37;;
2650;SDS011;1335;48.180;16.342;2023-07-13T03:03:09;1.70;;;1.60;;
2650;SDS011;1335;48.180;16.342;2023-07-13T03:05:39;3.83;;;1.47;;
2650;SDS011;1335;48.180;16.342;2023-07-13T03:08:07;1.93;;;1.50;;
2650;SDS011;1335;48.180;16.342;2023-07-13T03:10:34;1.47;;;1.37;;
2650;SDS011;1335;48.180;16.342;2023-07-13T03:13:02;1.37;;;1.20;;
2650;SDS011;1335;48.180;16.342;2023-07-13T03:15:29;3.60;;;1.63;;
2650;SDS011;1335;48.180;16.342;2023-07-13T03:17:57;5.67;;;2.17;;
2650;SDS011;1335;48.180;16.342;2023-07-13T03:20:24;2.23;;;1.70;;
2650;SDS011;1335;48.180;16.342;2023-07-13T03:22:53;2.10;;;1.90;;
2650;SDS011;1335;48.180;16.342;2023-07-13T03:25:20;1.73;;;1.50;;
2650;SDS011;1335;48.180;16.342;2023-07-13T03:27:47;2.47;;;1.40;;
2650;SDS011;1335;48.180;16.342;2023-07-13T03:30:14;2.93;;;1.80;;
2650;SDS011;1335;48.180;16.342;2023-07-13T03:32:42;1.27;;;1.17;;
2650;SDS011;1335;48.180;16.342;2023-07-13T03:35:09;1.97;;;1.17;;
2650;SDS011;1335;48.180;16.342;2023-07-13T03:37:37;2.17;;;1.80;;
2650;SDS011;1335;48.180;16.342;2023-07-13T03:40:09;3.33;;;1.63;;
2650;SDS011;1335;48.180;16.342;2023-07-13T03:42:36;1.63;;;1.53;;
2650;SDS011;1335;48.180;16.342;2023-07-13T03:45:04;2.07;;;1.50;;
2650;SDS011;1335;48.180;16.342;2023-07-13T03:47:31;3.20;;;2.07;;
2650;SDS011;1335;48.180;16.342;2023-07-13T03:49:58;2.00;;;1.87;;
2650;SDS011;1335;48.180;16.342;2023-07-13T03:52:26;2.27;;;1.83;;
2650;SDS011;1335;48.180;16.342;2023-07-13T03:54:53;3.03;;;1.73;;
2650;SDS011;1335;48.180;16.342;2023-07-13T03:57:22;2.03;;;1.63;;
2650;SDS011;1335;48.180;16.342;2023-07-13T03:59:49;3.27;;;1.90;;
2650;SDS011;1335;48.180;16.342;2023-07-13T04:02:16;2.50;;;1.67;;
2650;SDS011;1335;48.180;16.342;2023-07-13T04:04:43;2.13;;;1.93;;
2650;SDS011;1335;48.180;16.342;2023-07-13T04:07:11;5.87;;;1.93;;
2650;SDS011;1335;48.180;16.342;2023-07-13T04:09:38;1.60;;;1.50;;
2650;SDS011;1335;48.180;16.342;2023-07-13T04:12:06;3.07;;;1.97;;
2650;SDS011;1335;48.180;16.342;2023-07-13T04:14:34;3.10;;;2.00;;
2650;SDS011;1335;48.180;16.342;2023-07-13T04:17:01;2.43;;;2.23;;
2650;SDS011;1335;48.180;16.342;2023-07-13T04:19:29;2.10;;;1.90;;
2650;SDS011;1335;48.180;16.342;2023-07-13T04:21:56;4.27;;;2.50;;
2650;SDS011;1335;48.180;16.342;2023-07-13T04:24:23;1.77;;;1.67;;
2650;SDS011;1335;48.180;16.342;2023-07-13T04:26:51;2.03;;;1.83;;
2650;SDS011;1335;48.180;16.342;2023-07-13T04:29:18;3.83;;;2.10;;
2650;SDS011;1335;48.180;16.342;2023-07-13T04:31:46;3.47;;;2.67;;
2650;SDS011;1335;48.180;16.342;2023-07-13T04:34:14;3.53;;;1.90;;
2650;SDS011;1335;48.180;16.342;2023-07-13T04:36:41;3.00;;;2.20;;
2650;SDS011;1335;48.180;16.342;2023-07-13T04:39:09;2.80;;;2.27;;
2650;SDS011;1335;48.180;16.342;2023-07-13T04:41:36;2.10;;;2.00;;
2650;SDS011;1335;48.180;16.342;2023-07-13T04:44:03;3.07;;;2.63;;
2650;SDS011;1335;48.180;16.342;2023-07-13T04:46:30;3.03;;;2.17;;
2650;SDS011;1335;48.180;16.342;2023-07-13T04:48:59;3.20;;;2.40;;
2650;SDS011;1335;48.180;16.342;2023-07-13T04:51:29;2.37;;;1.97;;
2650;SDS011;1335;48.180;16.342;2023-07-13T04:53:56;2.57;;;2.37;;
2650;SDS011;1335;48.180;16.342;2023-07-13T04:56:23;2.63;;;2.30;;
2650;SDS011;1335;48.180;16.342;2023-07-13T04:58:50;2.27;;;2.03;;
2650;SDS011;1335;48.180;16.342;2023-07-13T05:01:18;2.47;;;2.00;;
2650;SDS011;1335;48.180;16.342;2023-07-13T05:03:45;2.43;;;2.23;;
2650;SDS011;1335;48.180;16.342;2023-07-13T05:06:13;3.47;;;1.90;;
2650;SDS011;1335;48.180;16.342;2023-07-13T05:08:41;7.50;;;2.17;;
2650;SDS011;1335;48.180;16.342;2023-07-13T05:11:08;2.30;;;1.90;;
2650;SDS011;1335;48.180;16.342;2023-07-13T05:13:35;1.97;;;1.50;;
2650;SDS011;1335;48.180;16.342;2023-07-13T05:16:03;1.70;;;1.60;;
2650;SDS011;1335;48.180;16.342;2023-07-13T05:18:31;2.00;;;1.90;;
2650;SDS011;1335;48.180;16.342;2023-07-13T05:20:59;2.30;;;1.87;;
2650;SDS011;1335;48.180;16.342;2023-07-13T05:23:28;1.77;;;1.63;;
2650;SDS011;1335;48.180;16.342;2023-07-13T05:25:56;2.67;;;2.43;;
2650;SDS011;1335;48.180;16.342;2023-07-13T05:28:23;3.30;;;1.90;;
2650;SDS011;1335;48.180;16.342;2023-07-13T05:30:50;2.50;;;1.83;;
2650;SDS011;1335;48.180;16.342;2023-07-13T05:33:19;2.30;;;1.50;;
2650;SDS011;1335;48.180;16.342;2023-07-13T05:35:46;2.13;;;1.60;;
2650;SDS011;1335;48.180;16.342;2023-07-13T05:38:13;2.20;;;1.37;;
2650;SDS011;1335;48.180;16.342;2023-07-13T05:40:43;3.60;;;2.20;;
2650;SDS011;1335;48.180;16.342;2023-07-13T05:43:10;1.27;;;1.00;;
2650;SDS011;1335;48.180;16.342;2023-07-13T05:45:38;1.53;;;1.43;;
2650;SDS011;1335;48.180;16.342;2023-07-13T05:48:05;1.97;;;1.57;;
2650;SDS011;1335;48.180;16.342;2023-07-13T05:50:32;1.53;;;1.40;;
2650;SDS011;1335;48.180;16.342;2023-07-13T05:52:59;1.33;;;1.20;;
2650;SDS011;1335;48.180;16.342;2023-07-13T05:55:27;1.63;;;1.23;;
2650;SDS011;1335;48.180;16.342;2023-07-13T05:57:55;2.07;;;1.43;;
2650;SDS011;1335;48.180;16.342;2023-07-13T06:00:23;2.33;;;1.40;;
2650;SDS011;1335;48.180;16.342;2023-07-13T06:02:50;2.40;;;1.90;;
2650;SDS011;1335;48.180;16.342;2023-07-13T06:05:17;2.43;;;1.60;;
2650;SDS011;1335;48.180;16.342;2023-07-13T06:07:45;3.00;;;1.67;;
2650;SDS011;1335;48.180;16.342;2023-07-13T06:10:12;1.60;;;1.43;;
2650;SDS011;1335;48.180;16.342;2023-07-13T06:12:39;2.20;;;1.83;;
2650;SDS011;1335;48.180;16.342;2023-07-13T06:15:08;1.33;;;1.23;;
2650;SDS011;1335;48.180;16.342;2023-07-13T06:17:36;1.00;;;1.00;;
2650;SDS011;1335;48.180;16.342;2023-07-13T06:20:03;1.50;;;1.37;;
2650;SDS011;1335;48.180;16.342;2023-07-13T06:22:30;1.60;;;1.50;;
2650;SDS011;1335;48.180;16.342;2023-07-13T06:24:58;3.50;;;2.03;;
2650;SDS011;1335;48.180;16.342;2023-07-13T06:27:25;2.80;;;0.90;;
2650;SDS011;1335;48.180;16.342;2023-07-13T06:29:52;1.67;;;1.57;;
2650;SDS011;1335;48.180;16.342;2023-07-13T06:32:21;1.27;;;1.20;;
2650;SDS011;1335;48.180;16.342;2023-07-13T06:34:48;2.80;;;1.90;;
2650;SDS011;1335;48.180;16.342;2023-07-13T06:37:16;2.50;;;2.03;;
2650;SDS011;1335;48.180;16.342;2023-07-13T06:39:44;2.10;;;1.60;;
2650;SDS011;1335;48.180;16.342;2023-07-13T06:42:11;2.23;;;1.40;;
2650;SDS011;1335;48.180;16.342;2023-07-13T06:44:38;1.23;;;1.10;;
2650;SDS011;1335;48.180;16.342;2023-07-13T06:47:06;1.87;;;1.57;;
2650;SDS011;1335;48.180;16.342;2023-07-13T06:49:34;1.50;;;1.40;;
2650;SDS011;1335;48.180;16.342;2023-07-13T06:52:01;2.60;;;1.23;;
2650;SDS011;1335;48.180;16.342;2023-07-13T06:54:29;3.43;;;1.27;;
2650;SDS011;1335;48.180;16.342;2023-07-13T06:56:56;1.90;;;1.10;;
2650;SDS011;1335;48.180;16.342;2023-07-13T06:59:23;0.90;;;0.70;;
2650;SDS011;1335;48.180;16.342;2023-07-13T07:01:51;1.77;;;1.30;;
2650;SDS011;1335;48.180;16.342;2023-07-13T07:04:18;3.53;;;1.20;;
2650;SDS011;1335;48.180;16.342;2023-07-13T07:06:46;4.13;;;0.77;;
2650;SDS011;1335;48.180;16.342;2023-07-13T07:09:14;0.80;;;0.70;;
2650;SDS011;1335;48.180;16.342;2023-07-13T07:11:41;1.27;;;1.17;;
2650;SDS011;1335;48.180;16.342;2023-07-13T07:14:08;1.73;;;1.10;;
2650;SDS011;1335;48.180;16.342;2023-07-13T07:16:36;2.73;;;1.20;;
2650;SDS011;1335;48.180;16.342;2023-07-13T07:19:03;1.30;;;1.20;;
2650;SDS011;1335;48.180;16.342;2023-07-13T07:21:30;2.67;;;1.20;;
2650;SDS011;1335;48.180;16.342;2023-07-13T07:23:59;1.57;;;1.10;;
2650;SDS011;1335;48.180;16.342;2023-07-13T07:26:28;2.37;;;1.30;;
2650;SDS011;1335;48.180;16.342;2023-07-13T07:28:55;2.43;;;1.33;;
2650;SDS011;1335;48.180;16.342;2023-07-13T07:31:22;1.93;;;1.33;;
2650;SDS011;1335;48.180;16.342;2023-07-13T07:33:50;1.43;;;1.17;;
2650;SDS011;1335;48.180;16.342;2023-07-13T07:36:17;3.53;;;1.20;;
2650;SDS011;1335;48.180;16.342;2023-07-13T07:38:44;1.87;;;1.30;;
2650;SDS011;1335;48.180;16.342;2023-07-13T07:41:13;2.33;;;1.37;;
2650;SDS011;1335;48.180;16.342;2023-07-13T07:43:40;1.80;;;1.70;;
2650;SDS011;1335;48.180;16.342;2023-07-13T07:46:07;0.93;;;0.90;;
2650;SDS011;1335;48.180;16.342;2023-07-13T07:48:35;1.20;;;1.10;;
2650;SDS011;1335;48.180;16.342;2023-07-13T07:51:02;2.70;;;1.40;;
2650;SDS011;1335;48.180;16.342;2023-07-13T07:53:29;2.97;;;1.00;;
2650;SDS011;1335;48.180;16.342;2023-07-13T07:55:56;1.77;;;1.00;;
2650;SDS011;1335;48.180;16.342;2023-07-13T07:58:25;1.97;;;1.10;;
2650;SDS011;1335;48.180;16.342;2023-07-13T08:00:52;1.00;;;0.73;;
2650;SDS011;1335;48.180;16.342;2023-07-13T08:03:19;0.90;;;0.90;;
2650;SDS011;1335;48.180;16.342;2023-07-13T08:05:47;0.80;;;0.73;;
2650;SDS011;1335;48.180;16.342;2023-07-13T08:08:14;6.13;;;1.40;;
2650;SDS011;1335;48.180;16.342;2023-07-13T08:10:42;1.77;;;1.17;;
2650;SDS011;1335;48.180;16.342;2023-07-13T08:13:09;1.40;;;1.30;;
2650;SDS011;1335;48.180;16.342;2023-07-13T08:15:37;0.90;;;0.90;;
2650;SDS011;1335;48.180;16.342;2023-07-13T08:18:05;1.00;;;0.90;;
2650;SDS011;1335;48.180;16.342;2023-07-13T08:20:36;0.83;;;0.83;;
2650;SDS011;1335;48.180;16.342;2023-07-13T08:23:03;3.30;;;1.00;;
2650;SDS011;1335;48.180;16.342;2023-07-13T08:25:30;1.37;;;1.03;;
2650;SDS011;1335;48.180;16.342;2023-07-13T08:27:57;2.97;;;1.30;;
2650;SDS011;1335;48.180;16.342;2023-07-13T08:30:25;2.37;;;1.20;;
2650;SDS011;1335;48.180;16.342;2023-07-13T08:32:54;1.20;;;1.10;;
2650;SDS011;1335;48.180;16.342;2023-07-13T08:35:21;1.40;;;1.00;;
2650;SDS011;1335;48.180;16.342;2023-07-13T08:37:50;1.10;;;1.00;;
2650;SDS011;1335;48.180;16.342;2023-07-13T08:40:18;0.97;;;0.90;;
2650;SDS011;1335;48.180;16.342;2023-07-13T08:42:49;2.93;;;1.20;;
2650;SDS011;1335;48.180;16.342;2023-07-13T08:45:19;1.13;;;1.03;;
2650;SDS011;1335;48.180;16.342;2023-07-13T08:47:49;4.57;;;1.23;;
2650;SDS011;1335;48.180;16.342;2023-07-13T08:50:20;1.60;;;1.40;;
2650;SDS011;1335;48.180;16.342;2023-07-13T08:52:51;1.83;;;1.50;;
2650;SDS011;1335;48.180;16.342;2023-07-13T08:55:20;1.53;;;1.47;;
2650;SDS011;1335;48.180;16.342;2023-07-13T08:57:48;2.00;;;1.50;;
2650;SDS011;1335;48.180;16.342;2023-07-13T09:00:17;1.67;;;1.53;;
2650;SDS011;1335;48.180;16.342;2023-07-13T09:02:46;1.90;;;1.80;;
2650;SDS011;1335;48.180;16.342;2023-07-13T09:05:16;1.50;;;1.40;;
2650;SDS011;1335;48.180;16.342;2023-07-13T09:07:50;2.07;;;1.87;;
2650;SDS011;1335;48.180;16.342;2023-07-13T09:10:23;1.90;;;1.80;;
2650;SDS011;1335;48.180;16.342;2023-07-13T09:12:57;2.50;;;1.63;;
2650;SDS011;1335;48.180;16.342;2023-07-13T09:15:28;3.50;;;2.20;;
2650;SDS011;1335;48.180;16.342;2023-07-13T09:17:57;3.33;;;1.80;;
2650;SDS011;1335;48.180;16.342;2023-07-13T09:20:27;1.73;;;1.63;;
2650;SDS011;1335;48.180;16.342;2023-07-13T09:22:57;2.13;;;1.60;;
2650;SDS011;1335;48.180;16.342;2023-07-13T09:25:26;3.80;;;2.23;;
2650;SDS011;1335;48.180;16.342;2023-07-13T09:27:56;2.20;;;1.97;;
2650;SDS011;1335;48.180;16.342;2023-07-13T09:30:27;1.93;;;1.83;;
2650;SDS011;1335;48.180;16.342;2023-07-13T09:32:57;2.63;;;2.23;;
2650;SDS011;1335;48.180;16.342;2023-07-13T09:35:25;5.33;;;2.30;;
2650;SDS011;1335;48.180;16.342;2023-07-13T09:37:58;2.50;;;2.30;;
2650;SDS011;1335;48.180;16.342;2023-07-13T09:40:28;2.40;;;2.30;;
2650;SDS011;1335;48.180;16.342;2023-07-13T09:42:57;3.83;;;2.40;;
2650;SDS011;1335;48.180;16.342;2023-07-13T09:45:29;3.37;;;2.80;;
2650;SDS011;1335;48.180;16.342;2023-07-13T09:48:03;3.77;;;2.40;;
2650;SDS011;1335;48.180;16.342;2023-07-13T09:50:30;2.30;;;1.90;;
2650;SDS011;1335;48.180;16.342;2023-07-13T09:53:00;2.67;;;2.47;;
2650;SDS011;1335;48.180;16.342;2023-07-13T09:55:29;2.93;;;2.30;;
2650;SDS011;1335;48.180;16.342;2023-07-13T09:57:56;2.60;;;2.40;;
2650;SDS011;1335;48.180;16.342;2023-07-13T10:00:25;2.20;;;2.00;;
2650;SDS011;1335;48.180;16.342;2023-07-13T10:03:00;3.33;;;2.37;;
2650;SDS011;1335;48.180;16.342;2023-07-13T10:05:28;3.90;;;2.00;;
2650;SDS011;1335;48.180;16.342;2023-07-13T10:08:05;2.37;;;2.10;;
2650;SDS011;1335;48.180;16.342;2023-07-13T10:10:33;2.67;;;2.17;;
2650;SDS011;1335;48.180;16.342;2023-07-13T10:13:01;2.93;;;2.60;;
2650;SDS011;1335;48.180;16.342;2023-07-13T10:15:30;2.63;;;2.43;;
2650;SDS011;1335;48.180;16.342;2023-07-13T10:17:58;3.77;;;2.80;;
2650;SDS011;1335;48.180;16.342;2023-07-13T10:20:26;2.37;;;2.27;;
2650;SDS011;1335;48.180;16.342;2023-07-13T10:22:54;2.53;;;2.33;;
2650;SDS011;1335;48.180;16.342;2023-07-13T10:25:26;4.00;;;2.80;;
2650;SDS011;1335;48.180;16.342;2023-07-13T10:27:54;3.10;;;2.80;;
2650;SDS011;1335;48.180;16.342;2023-07-13T10:30:24;2.30;;;2.20;;
2650;SDS011;1335;48.180;16.342;2023-07-13T10:32:53;3.40;;;3.07;;
2650;SDS011;1335;48.180;16.342;2023-07-13T10:35:21;2.50;;;2.30;;
2650;SDS011;1335;48.180;16.342;2023-07-13T10:37:50;2.60;;;2.40;;
2650;SDS011;1335;48.180;16.342;2023-07-13T10:40:25;2.97;;;2.70;;
2650;SDS011;1335;48.180;16.342;2023-07-13T10:42:56;3.23;;;2.83;;
2650;SDS011;1335;48.180;16.342;2023-07-13T10:45:24;3.43;;;3.13;;
2650;SDS011;1335;48.180;16.342;2023-07-13T10:47:52;2.60;;;2.40;;
2650;SDS011;1335;48.180;16.342;2023-07-13T10:50:22;2.83;;;2.63;;
2650;SDS011;1335;48.180;16.342;2023-07-13T10:52:50;2.70;;;2.50;;
2650;SDS011;1335;48.180;16.342;2023-07-13T10:55:35;3.20;;;2.90;;
2650;SDS011;1335;48.180;16.342;2023-07-13T10:58:11;2.63;;;2.50;;
2650;SDS011;1335;48.180;16.342;2023-07-13T11:00:43;3.20;;;2.57;;
2650;SDS011;1335;48.180;16.342;2023-07-13T11:03:10;2.80;;;2.60;;
2650;SDS011;1335;48.180;16.342;2023-07-13T11:05:40;2.37;;;2.17;;
2650;SDS011;1335;48.180;16.342;2023-07-13T11:08:13;3.27;;;3.07;;
2650;SDS011;1335;48.180;16.342;2023-07-13T11:10:47;2.90;;;2.70;;
2650;SDS011;1335;48.180;16.342;2023-07-13T11:16:01;3.10;;;2.90;;
2650;SDS011;1335;48.180;16.342;2023-07-13T11:18:38;3.30;;;2.80;;
2650;SDS011;1335;48.180;16.342;2023-07-13T11:21:16;3.13;;;2.37;;
2650;SDS011;1335;48.180;16.342;2023-07-13T11:23:45;3.07;;;2.87;;
2650;SDS011;1335;48.180;16.342;2023-07-13T11:29:07;2.20;;;2.10;;
2650;SDS011;1335;48.180;16.342;2023-07-13T11:31:37;2.97;;;2.67;;
2650;SDS011;1335;48.180;16.342;2023-07-13T11:34:06;2.57;;;2.40;;
2650;SDS011;1335;48.180;16.342;2023-07-13T11:36:39;3.00;;;2.10;;
2650;SDS011;1335;48.180;16.342;2023-07-13T11:39:15;2.27;;;2.13;;
2650;SDS011;1335;48.180;16.342;2023-07-13T11:41:44;2.90;;;2.27;;
2650;SDS011;1335;48.180;16.342;2023-07-13T11:44:12;2.50;;;2.30;;
2650;SDS011;1335;48.180;16.342;2023-07-13T11:46:46;2.57;;;2.37;;
2650;SDS011;1335;48.180;16.342;2023-07-13T11:49:15;3.37;;;2.70;;
2650;SDS011;1335;48.180;16.342;2023-07-13T11:51:43;2.70;;;2.50;;
2650;SDS011;1335;48.180;16.342;2023-07-13T11:54:15;2.50;;;2.30;;
2650;SDS011;1335;48.180;16.342;2023-07-13T11:56:44;4.30;;;2.20;;
2650;SDS011;1335;48.180;16.342;2023-07-13T11:59:11;3.70;;;2.13;;
2650;SDS011;1335;48.180;16.342;2023-07-13T12:01:42;2.33;;;2.13;;
2650;SDS011;1335;48.180;16.342;2023-07-13T12:04:14;3.40;;;2.53;;
2650;SDS011;1335;48.180;16.342;2023-07-13T12:06:46;2.20;;;2.00;;
2650;SDS011;1335;48.180;16.342;2023-07-13T12:09:14;8.00;;;2.47;;
2650;SDS011;1335;48.180;16.342;2023-07-13T12:11:42;2.00;;;1.90;;
2650;SDS011;1335;48.180;16.342;2023-07-13T12:14:13;2.80;;;2.60;;
2650;SDS011;1335;48.180;16.342;2023-07-13T12:16:41;1.90;;;1.80;;
2650;SDS011;1335;48.180;16.342;2023-07-13T12:19:14;6.30;;;2.10;;
2650;SDS011;1335;48.180;16.342;2023-07-13T12:21:45;2.83;;;2.60;;
2650;SDS011;1335;48.180;16.342;2023-07-13T12:24:13;2.60;;;2.10;;
2650;SDS011;1335;48.180;16.342;2023-07-13T12:26:41;3.10;;;2.53;;
2650;SDS011;1335;48.180;16.342;2023-07-13T12:29:10;4.30;;;2.00;;
2650;SDS011;1335;48.180;16.342;2023-07-13T12:31:42;2.20;;;2.00;;
2650;SDS011;1335;48.180;16.342;2023-07-13T12:34:14;2.30;;;2.20;;
2650;SDS011;1335;48.180;16.342;2023-07-13T12:36:46;2.90;;;2.27;;
2650;SDS011;1335;48.180;16.342;2023-07-13T12:39:15;3.13;;;2.50;;
2650;SDS011;1335;48.180;16.342;2023-07-13T12:41:43;2.23;;;2.13;;
2650;SDS011;1335;48.180;16.342;2023-07-13T12:44:11;2.73;;;2.40;;
2650;SDS011;1335;48.180;16.342;2023-07-13T12:46:39;2.27;;;2.07;;
2650;SDS011;1335;48.180;16.342;2023-07-13T12:49:07;2.77;;;2.53;;
2650;SDS011;1335;48.180;16.342;2023-07-13T12:51:35;3.80;;;3.10;;
2650;SDS011;1335;48.180;16.342;2023-07-13T12:54:13;7.80;;;7.20;;
2650;SDS011;1335;48.180;16.342;2023-07-13T12:56:41;5.03;;;2.47;;
2650;SDS011;1335;48.180;16.342;2023-07-13T12:59:11;3.37;;;3.07;;
2650;SDS011;1335;48.180;16.342;2023-07-13T13:01:42;2.30;;;2.17;;
2650;SDS011;1335;48.180;16.342;2023-07-13T13:04:09;3.60;;;2.80;;
2650;SDS011;1335;48.180;16.342;2023-07-13T13:06:38;3.50;;;3.20;;
2650;SDS011;1335;48.180;16.342;2023-07-13T13:09:09;3.00;;;2.20;;
2650;SDS011;1335;48.180;16.342;2023-07-13T13:11:39;7.13;;;4.80;;
2650;SDS011;1335;48.180;16.342;2023-07-13T13:14:07;2.83;;;2.63;;
2650;SDS011;1335;48.180;16.342;2023-07-13T13:16:35;7.33;;;2.80;;
2650;SDS011;1335;48.180;16.342;2023-07-13T13:19:15;9.00;;;6.13;;
2650;SDS011;1335;48.180;16.342;2023-07-13T13:21:42;4.63;;;2.67;;
2650;SDS011;1335;48.180;16.342;2023-07-13T13:24:11;2.67;;;2.43;;
2650;SDS011;1335;48.180;16.342;2023-07-13T13:26:40;3.70;;;2.57;;
2650;SDS011;1335;48.180;16.342;2023-07-13T13:29:14;2.13;;;1.93;;
2650;SDS011;1335;48.180;16.342;2023-07-13T13:31:42;2.40;;;2.07;;
2650;SDS011;1335;48.180;16.342;2023-07-13T13:34:09;2.27;;;2.17;;
2650;SDS011;1335;48.180;16.342;2023-07-13T13:36:37;4.00;;;2.10;;
2650;SDS011;1335;48.180;16.342;2023-07-13T13:39:05;3.73;;;2.50;;
2650;SDS011;1335;48.180;16.342;2023-07-13T13:41:43;2.33;;;2.13;;
2650;SDS011;1335;48.180;16.342;2023-07-13T13:44:12;2.33;;;2.07;;
2650;SDS011;1335;48.180;16.342;2023-07-13T13:46:40;6.13;;;2.20;;
2650;SDS011;1335;48.180;16.342;2023-07-13T13:49:08;2.70;;;2.00;;
2650;SDS011;1335;48.180;16.342;2023-07-13T13:51:38;3.17;;;2.13;;
2650;SDS011;1335;48.180;16.342;2023-07-13T13:54:08;2.60;;;2.40;;
2650;SDS011;1335;48.180;16.342;2023-07-13T13:56:36;3.47;;;3.23;;
2650;SDS011;1335;48.180;16.342;2023-07-13T13:59:05;2.40;;;2.20;;
2650;SDS011;1335;48.180;16.342;2023-07-13T14:01:33;2.60;;;1.90;;
2650;SDS011;1335;48.180;16.342;2023-07-13T14:04:01;2.77;;;2.10;;
2650;SDS011;1335;48.180;16.342;2023-07-13T14:06:29;5.27;;;2.70;;
2650;SDS011;1335;48.180;16.342;2023-07-13T14:08:56;2.30;;;2.10;;
2650;SDS011;1335;48.180;16.342;2023-07-13T14:11:23;2.40;;;2.20;;
2650;SDS011;1335;48.180;16.342;2023-07-13T14:13:52;3.63;;;2.40;;
2650;SDS011;1335;48.180;16.342;2023-07-13T14:16:22;2.60;;;2.40;;
2650;SDS011;1335;48.180;16.342;2023-07-13T14:18:53;2.30;;;2.00;;
2650;SDS011;1335;48.180;16.342;2023-07-13T14:21:23;4.40;;;2.23;;
2650;SDS011;1335;48.180;16.342;2023-07-13T14:23:50;4.80;;;3.27;;
2650;SDS011;1335;48.180;16.342;2023-07-13T14:26:18;2.03;;;1.93;;
2650;SDS011;1335;48.180;16.342;2023-07-13T14:28:47;3.83;;;2.67;;
2650;SDS011;1335;48.180;16.342;2023-07-13T14:31:16;3.60;;;2.77;;
2650;SDS011;1335;48.180;16.342;2023-07-13T14:33:45;4.10;;;2.23;;
2650;SDS011;1335;48.180;16.342;2023-07-13T14:36:16;4.53;;;2.20;;
2650;SDS011;1335;48.180;16.342;2023-07-13T14:38:47;2.97;;;2.00;;
2650;SDS011;1335;48.180;16.342;2023-07-13T14:41:15;2.30;;;2.10;;
2650;SDS011;1335;48.180;16.342;2023-07-13T14:43:42;2.53;;;2.33;;
2650;SDS011;1335;48.180;16.342;2023-07-13T14:46:11;2.93;;;2.50;;
2650;SDS011;1335;48.180;16.342;2023-07-13T14:48:45;4.20;;;2.47;;
2650;SDS011;1335;48.180;16.342;2023-07-13T14:51:12;3.30;;;3.10;;
2650;SDS011;1335;48.180;16.342;2023-07-13T14:53:40;2.27;;;2.17;;
2650;SDS011;1335;48.180;16.342;2023-07-13T14:56:09;3.40;;;3.10;;
2650;SDS011;1335;48.180;16.342;2023-07-13T14:58:37;2.77;;;2.50;;
2650;SDS011;1335;48.180;16.342;2023-07-13T15:01:07;3.03;;;2.03;;
2650;SDS011;1335;48.180;16.342;2023-07-13T15:03:39;3.20;;;2.30;;
2650;SDS011;1335;48.180;16.342;2023-07-13T15:06:10;4.10;;;2.17;;
2650;SDS011;1335;48.180;16.342;2023-07-13T15:08:38;2.30;;;2.17;;
2650;SDS011;1335;48.180;16.342;2023-07-13T15:11:06;2.50;;;2.30;;
2650;SDS011;1335;48.180;16.342;2023-07-13T15:13:33;4.60;;;1.93;;